sensor_id;sensor_type;location;lat;lon;timestamp;pressure;altitude;pressure_sealevel;temperature;humidity
6524;BME280;3295;38.928;-77.052;2023-02-23T00:01:41;100555.53;;;13.29;61.03
6524;BME280;3295;38.928;-77.052;2023-02-23T00:04:09;100554.72;;;13.06;62.46
6524;BME280;3295;38.928;-77.052;2023-02-23T00:06:37;100556.97;;;12.97;66.29
6524;BME280;3295;38.928;-77.052;2023-02-23T00:09:06;100547.16;;;13.09;66.73
6524;BME280;3295;38.928;-77.052;2023-02-23T00:11:48;100551.88;;;12.99;69.12
6524;BME280;3295;38.928;-77.052;2023-02-23T00:14:18;100547.03;;;13.06;70.04
6524;BME280;3295;38.928;-77.052;2023-02-23T00:16:45;100541.59;;;12.97;72.11
6524;BME280;3295;38.928;-77.052;2023-02-23T00:19:13;100541.38;;;13.15;72.01
6524;BME280;3295;38.928;-77.052;2023-02-23T00:21:42;100524.16;;;13.11;72.25
6524;BME280;3295;38.928;-77.052;2023-02-23T00:24:11;100511.03;;;13.02;75.04
6524;BME280;3295;38.928;-77.052;2023-02-23T00:26:40;100511.09;;;13.03;76.53
6524;BME280;3295;38.928;-77.052;2023-02-23T00:29:12;100515.63;;;13.12;76.12
6524;BME280;3295;38.928;-77.052;2023-02-23T00:31:44;100507.50;;;13.22;76.12
6524;BME280;3295;38.928;-77.052;2023-02-23T00:34:13;100498.78;;;13.17;76.85
6524;BME280;3295;38.928;-77.052;2023-02-23T00:36:48;100503.22;;;12.99;79.06
6524;BME280;3295;38.928;-77.052;2023-02-23T00:39:16;100476.81;;;12.74;82.79
6524;BME280;3295;38.928;-77.052;2023-02-23T00:41:47;100466.31;;;12.67;85.32
6524;BME280;3295;38.928;-77.052;2023-02-23T00:44:15;100474.25;;;12.74;85.34
6524;BME280;3295;38.928;-77.052;2023-02-23T00:46:45;100468.84;;;12.91;84.02
6524;BME280;3295;38.928;-77.052;2023-02-23T00:49:14;100473.31;;;12.96;83.75
6524;BME280;3295;38.928;-77.052;2023-02-23T00:51:42;100466.28;;;12.91;83.84
6524;BME280;3295;38.928;-77.052;2023-02-23T00:54:12;100476.53;;;12.91;85.06
6524;BME280;3295;38.928;-77.052;2023-02-23T00:56:40;100474.19;;;12.97;84.40
6524;BME280;3295;38.928;-77.052;2023-02-23T00:59:08;100469.41;;;12.58;89.38
6524;BME280;3295;38.928;-77.052;2023-02-23T01:01:36;100477.63;;;12.50;91.42
6524;BME280;3295;38.928;-77.052;2023-02-23T01:04:08;100474.22;;;12.49;92.49
6524;BME280;3295;38.928;-77.052;2023-02-23T01:06:37;100473.13;;;12.66;91.43
6524;BME280;3295;38.928;-77.052;2023-02-23T01:09:06;100479.53;;;12.79;90.26
6524;BME280;3295;38.928;-77.052;2023-02-23T01:11:35;100492.69;;;12.90;89.36
6524;BME280;3295;38.928;-77.052;2023-02-23T01:14:02;100474.06;;;12.94;88.05
6524;BME280;3295;38.928;-77.052;2023-02-23T01:16:32;100461.06;;;12.88;89.30
6524;BME280;3295;38.928;-77.052;2023-02-23T01:19:02;100480.72;;;12.89;89.34
6524;BME280;3295;38.928;-77.052;2023-02-23T01:21:33;100523.41;;;12.90;89.77
6524;BME280;3295;38.928;-77.052;2023-02-23T01:24:01;100522.09;;;13.01;88.71
6524;BME280;3295;38.928;-77.052;2023-02-23T01:26:31;100521.13;;;12.97;89.12
6524;BME280;3295;38.928;-77.052;2023-02-23T01:29:01;100521.16;;;12.99;89.31
6524;BME280;3295;38.928;-77.052;2023-02-23T01:31:29;100513.06;;;13.10;88.11
6524;BME280;3295;38.928;-77.052;2023-02-23T01:33:58;100503.75;;;13.14;87.63
6524;BME280;3295;38.928;-77.052;2023-02-23T01:36:27;100517.25;;;13.08;88.23
6524;BME280;3295;38.928;-77.052;2023-02-23T01:38:57;100509.03;;;13.17;88.52
6524;BME280;3295;38.928;-77.052;2023-02-23T01:41:27;100492.13;;;13.22;87.37
6524;BME280;3295;38.928;-77.052;2023-02-23T01:44:00;100500.75;;;13.24;87.20
6524;BME280;3295;38.928;-77.052;2023-02-23T01:46:30;100499.94;;;13.25;86.74
6524;BME280;3295;38.928;-77.052;2023-02-23T01:48:59;100499.41;;;13.35;86.68
6524;BME280;3295;38.928;-77.052;2023-02-23T01:51:29;100503.81;;;13.41;85.54
6524;BME280;3295;38.928;-77.052;2023-02-23T01:54:03;100496.94;;;13.38;84.93
6524;BME280;3295;38.928;-77.052;2023-02-23T01:56:36;100510.41;;;13.33;85.63
6524;BME280;3295;38.928;-77.052;2023-02-23T01:59:11;100511.84;;;13.25;86.25
6524;BME280;3295;38.928;-77.052;2023-02-23T02:01:41;100505.66;;;13.18;88.22
6524;BME280;3295;38.928;-77.052;2023-02-23T02:04:11;100506.41;;;13.15;88.49
6524;BME280;3295;38.928;-77.052;2023-02-23T02:06:43;100513.06;;;13.10;89.48
6524;BME280;3295;38.928;-77.052;2023-02-23T02:09:15;100514.00;;;13.14;88.66
6524;BME280;3295;38.928;-77.052;2023-02-23T02:11:44;100513.91;;;13.11;89.51
6524;BME280;3295;38.928;-77.052;2023-02-23T02:14:22;100516.75;;;13.19;89.70
6524;BME280;3295;38.928;-77.052;2023-02-23T02:17:03;100520.44;;;13.27;88.97
6524;BME280;3295;38.928;-77.052;2023-02-23T02:26:17;100506.44;;;13.42;85.58
6524;BME280;3295;38.928;-77.052;2023-02-23T02:29:19;100504.69;;;13.41;86.61
6524;BME280;3295;38.928;-77.052;2023-02-23T02:32:25;100513.94;;;13.36;86.64
6524;BME280;3295;38.928;-77.052;2023-02-23T02:35:26;100516.34;;;13.32;87.25
6524;BME280;3295;38.928;-77.052;2023-02-23T02:38:15;100538.34;;;13.25;87.89
6524;BME280;3295;38.928;-77.052;2023-02-23T02:40:47;100553.19;;;13.35;86.69
6524;BME280;3295;38.928;-77.052;2023-02-23T02:43:24;100547.44;;;13.42;86.08
6524;BME280;3295;38.928;-77.052;2023-02-23T02:46:00;100547.44;;;13.42;85.64
6524;BME280;3295;38.928;-77.052;2023-02-23T02:48:38;100535.53;;;13.44;85.45
6524;BME280;3295;38.928;-77.052;2023-02-23T02:51:13;100535.53;;;13.44;85.61
6524;BME280;3295;38.928;-77.052;2023-02-23T02:53:50;100545.69;;;13.41;85.86
6524;BME280;3295;38.928;-77.052;2023-02-23T02:56:22;100529.22;;;13.33;86.43
6524;BME280;3295;38.928;-77.052;2023-02-23T02:58:52;100525.53;;;13.25;87.04
6524;BME280;3295;38.928;-77.052;2023-02-23T03:01:21;100527.75;;;13.16;87.19
6524;BME280;3295;38.928;-77.052;2023-02-23T03:04:20;100530.81;;;13.06;89.10
6524;BME280;3295;38.928;-77.052;2023-02-23T03:07:09;100528.94;;;13.02;90.04
6524;BME280;3295;38.928;-77.052;2023-02-23T03:10:05;100529.06;;;13.05;89.50
6524;BME280;3295;38.928;-77.052;2023-02-23T03:12:59;100522.31;;;13.07;89.58
6524;BME280;3295;38.928;-77.052;2023-02-23T03:15:54;100515.44;;;13.06;90.02
6524;BME280;3295;38.928;-77.052;2023-02-23T03:18:54;100496.81;;;13.10;89.78
6524;BME280;3295;38.928;-77.052;2023-02-23T03:21:47;100487.94;;;13.00;90.98
6524;BME280;3295;38.928;-77.052;2023-02-23T03:24:39;100480.81;;;12.92;91.91
6524;BME280;3295;38.928;-77.052;2023-02-23T03:27:38;100485.06;;;12.91;91.44
6524;BME280;3295;38.928;-77.052;2023-02-23T03:30:29;100468.53;;;12.81;93.16
6524;BME280;3295;38.928;-77.052;2023-02-23T03:33:26;100477.91;;;12.81;93.65
6524;BME280;3295;38.928;-77.052;2023-02-23T03:36:16;100460.13;;;12.86;93.04
6524;BME280;3295;38.928;-77.052;2023-02-23T03:39:11;100458.44;;;12.86;93.15
6524;BME280;3295;38.928;-77.052;2023-02-23T03:42:01;100443.25;;;12.91;92.18
6524;BME280;3295;38.928;-77.052;2023-02-23T03:44:50;100448.66;;;12.74;93.49
6524;BME280;3295;38.928;-77.052;2023-02-23T03:47:38;100441.31;;;12.84;93.42
6524;BME280;3295;38.928;-77.052;2023-02-23T03:50:28;100424.28;;;12.86;93.26
6524;BME280;3295;38.928;-77.052;2023-02-23T03:53:17;100410.69;;;12.87;92.16
6524;BME280;3295;38.928;-77.052;2023-02-23T03:56:08;100398.63;;;12.82;91.02
6524;BME280;3295;38.928;-77.052;2023-02-23T03:58:58;100376.78;;;12.67;91.20
6524;BME280;3295;38.928;-77.052;2023-02-23T04:01:47;100381.72;;;12.62;91.88
6524;BME280;3295;38.928;-77.052;2023-02-23T04:04:35;100377.63;;;12.42;96.18
6524;BME280;3295;38.928;-77.052;2023-02-23T04:07:22;100368.53;;;12.50;95.88
6524;BME280;3295;38.928;-77.052;2023-02-23T04:10:09;100337.06;;;12.53;96.48
6524;BME280;3295;38.928;-77.052;2023-02-23T04:12:59;100322.25;;;12.42;95.46
6524;BME280;3295;38.928;-77.052;2023-02-23T04:15:50;100327.84;;;12.32;95.61
6524;BME280;3295;38.928;-77.052;2023-02-23T04:18:22;100328.28;;;12.21;96.95
6524;BME280;3295;38.928;-77.052;2023-02-23T04:20:50;100313.06;;;12.24;98.98
6524;BME280;3295;38.928;-77.052;2023-02-23T04:23:19;100303.16;;;12.33;98.54
6524;BME280;3295;38.928;-77.052;2023-02-23T04:25:48;100313.69;;;12.42;97.96
6524;BME280;3295;38.928;-77.052;2023-02-23T04:28:16;100314.53;;;12.41;97.79
6524;BME280;3295;38.928;-77.052;2023-02-23T04:30:44;100310.09;;;12.37;98.73
6524;BME280;3295;38.928;-77.052;2023-02-23T04:33:12;100304.28;;;12.41;98.86
6524;BME280;3295;38.928;-77.052;2023-02-23T04:35:41;100326.16;;;12.33;99.72
6524;BME280;3295;38.928;-77.052;2023-02-23T04:38:09;100318.81;;;12.42;99.47
6524;BME280;3295;38.928;-77.052;2023-02-23T04:40:37;100323.81;;;12.39;99.39
6524;BME280;3295;38.928;-77.052;2023-02-23T04:43:05;100301.72;;;12.41;99.44
6524;BME280;3295;38.928;-77.052;2023-02-23T04:45:33;100303.78;;;12.26;100.00
6524;BME280;3295;38.928;-77.052;2023-02-23T04:48:01;100302.09;;;12.26;100.00
6524;BME280;3295;38.928;-77.052;2023-02-23T04:50:29;100319.75;;;12.20;100.00
6524;BME280;3295;38.928;-77.052;2023-02-23T04:52:58;100338.97;;;12.09;100.00
6524;BME280;3295;38.928;-77.052;2023-02-23T04:55:26;100338.41;;;12.18;100.00
6524;BME280;3295;38.928;-77.052;2023-02-23T04:57:57;100334.66;;;12.32;100.00
6524;BME280;3295;38.928;-77.052;2023-02-23T05:00:26;100316.97;;;12.38;100.00
6524;BME280;3295;38.928;-77.052;2023-02-23T05:02:54;100313.59;;;12.39;99.23
6524;BME280;3295;38.928;-77.052;2023-02-23T05:05:22;100333.94;;;12.36;100.00
6524;BME280;3295;38.928;-77.052;2023-02-23T05:07:50;100344.41;;;12.18;100.00
6524;BME280;3295;38.928;-77.052;2023-02-23T05:10:20;100329.94;;;12.19;100.00
6524;BME280;3295;38.928;-77.052;2023-02-23T05:12:48;100330.78;;;12.19;100.00
6524;BME280;3295;38.928;-77.052;2023-02-23T05:15:16;100337.00;;;12.26;100.00
6524;BME280;3295;38.928;-77.052;2023-02-23T05:17:44;100332.19;;;12.35;100.00
6524;BME280;3295;38.928;-77.052;2023-02-23T05:20:12;100325.16;;;12.28;100.00
6524;BME280;3295;38.928;-77.052;2023-02-23T05:22:40;100340.50;;;12.28;100.00
6524;BME280;3295;38.928;-77.052;2023-02-23T05:25:09;100340.16;;;12.19;100.00
6524;BME280;3295;38.928;-77.052;2023-02-23T05:27:39;100355.88;;;12.29;100.00
6524;BME280;3295;38.928;-77.052;2023-02-23T05:30:08;100356.13;;;12.37;100.00
6524;BME280;3295;38.928;-77.052;2023-02-23T05:32:36;100346.84;;;12.39;100.00
6524;BME280;3295;38.928;-77.052;2023-02-23T05:35:04;100329.88;;;12.41;100.00
6524;BME280;3295;38.928;-77.052;2023-02-23T05:37:32;100330.47;;;12.34;100.00
6524;BME280;3295;38.928;-77.052;2023-02-23T05:40:00;100326.66;;;12.23;100.00
6524;BME280;3295;38.928;-77.052;2023-02-23T05:42:28;100312.53;;;12.08;100.00
6524;BME280;3295;38.928;-77.052;2023-02-23T05:44:57;100300.28;;;11.98;100.00
6524;BME280;3295;38.928;-77.052;2023-02-23T05:47:25;100305.25;;;11.95;100.00
6524;BME280;3295;38.928;-77.052;2023-02-23T05:49:53;100294.97;;;11.94;100.00
6524;BME280;3295;38.928;-77.052;2023-02-23T05:52:21;100291.44;;;11.90;100.00
6524;BME280;3295;38.928;-77.052;2023-02-23T05:54:49;100298.28;;;11.91;100.00
6524;BME280;3295;38.928;-77.052;2023-02-23T05:57:17;100290.44;;;11.85;100.00
6524;BME280;3295;38.928;-77.052;2023-02-23T05:59:45;100276.09;;;11.89;100.00
6524;BME280;3295;38.928;-77.052;2023-02-23T06:02:14;100277.84;;;11.91;100.00
6524;BME280;3295;38.928;-77.052;2023-02-23T06:04:42;100290.63;;;11.91;100.00
6524;BME280;3295;38.928;-77.052;2023-02-23T06:07:10;100275.25;;;11.90;100.00
6524;BME280;3295;38.928;-77.052;2023-02-23T06:09:37;100329.56;;;11.84;100.00
6524;BME280;3295;38.928;-77.052;2023-02-23T06:12:06;100332.50;;;11.95;100.00
6524;BME280;3295;38.928;-77.052;2023-02-23T06:14:34;100324.28;;;12.03;100.00
6524;BME280;3295;38.928;-77.052;2023-02-23T06:17:01;100320.31;;;12.12;100.00
6524;BME280;3295;38.928;-77.052;2023-02-23T06:19:32;100319.34;;;12.08;100.00
6524;BME280;3295;38.928;-77.052;2023-02-23T06:21:59;100322.72;;;12.07;100.00
6524;BME280;3295;38.928;-77.052;2023-02-23T06:24:27;100295.56;;;12.10;100.00
6524;BME280;3295;38.928;-77.052;2023-02-23T06:26:55;100292.03;;;12.07;100.00
6524;BME280;3295;38.928;-77.052;2023-02-23T06:29:23;100294.59;;;12.07;100.00
6524;BME280;3295;38.928;-77.052;2023-02-23T06:31:51;100290.34;;;12.07;100.00
6524;BME280;3295;38.928;-77.052;2023-02-23T06:34:19;100268.84;;;12.01;100.00
6524;BME280;3295;38.928;-77.052;2023-02-23T06:36:48;100258.50;;;11.98;100.00
6524;BME280;3295;38.928;-77.052;2023-02-23T06:39:16;100269.59;;;11.98;100.00
6524;BME280;3295;38.928;-77.052;2023-02-23T06:41:44;100261.00;;;11.96;100.00
6524;BME280;3295;38.928;-77.052;2023-02-23T06:44:12;100252.41;;;11.94;100.00
6524;BME280;3295;38.928;-77.052;2023-02-23T06:46:40;100236.91;;;11.90;100.00
6524;BME280;3295;38.928;-77.052;2023-02-23T06:49:09;100237.78;;;11.90;100.00
6524;BME280;3295;38.928;-77.052;2023-02-23T06:51:38;100238.59;;;11.89;100.00
6524;BME280;3295;38.928;-77.052;2023-02-23T06:54:07;100233.50;;;11.89;100.00
6524;BME280;3295;38.928;-77.052;2023-02-23T06:56:35;100220.72;;;11.89;100.00
6524;BME280;3295;38.928;-77.052;2023-02-23T06:59:02;100212.34;;;11.93;100.00
6524;BME280;3295;38.928;-77.052;2023-02-23T07:01:30;100208.91;;;11.93;100.00
6524;BME280;3295;38.928;-77.052;2023-02-23T07:03:58;100203.63;;;11.87;100.00
6524;BME280;3295;38.928;-77.052;2023-02-23T07:06:26;100200.22;;;11.64;100.00
6524;BME280;3295;38.928;-77.052;2023-02-23T07:08:56;100201.03;;;11.63;100.00
6524;BME280;3295;38.928;-77.052;2023-02-23T07:11:26;100198.47;;;11.61;100.00
6524;BME280;3295;38.928;-77.052;2023-02-23T07:13:56;100204.63;;;11.68;100.00
6524;BME280;3295;38.928;-77.052;2023-02-23T07:16:24;100206.88;;;11.59;100.00
6524;BME280;3295;38.928;-77.052;2023-02-23T07:18:53;100202.19;;;11.71;100.00
6524;BME280;3295;38.928;-77.052;2023-02-23T07:21:21;100194.88;;;11.80;100.00
6524;BME280;3295;38.928;-77.052;2023-02-23T07:23:49;100199.16;;;11.81;100.00
6524;BME280;3295;38.928;-77.052;2023-02-23T07:26:17;100183.72;;;11.54;100.00
6524;BME280;3295;38.928;-77.052;2023-02-23T07:28:48;100179.88;;;11.42;100.00
6524;BME280;3295;38.928;-77.052;2023-02-23T07:31:16;100183.72;;;11.30;100.00
6524;BME280;3295;38.928;-77.052;2023-02-23T07:33:44;100173.41;;;11.27;100.00
6524;BME280;3295;38.928;-77.052;2023-02-23T07:36:12;100171.53;;;11.23;100.00
6524;BME280;3295;38.928;-77.052;2023-02-23T07:38:40;100170.69;;;11.23;100.00
6524;BME280;3295;38.928;-77.052;2023-02-23T07:41:07;100170.03;;;11.28;100.00
6524;BME280;3295;38.928;-77.052;2023-02-23T07:43:35;100158.63;;;11.43;100.00
6524;BME280;3295;38.928;-77.052;2023-02-23T07:46:05;100164.16;;;11.55;100.00
6524;BME280;3295;38.928;-77.052;2023-02-23T07:48:33;100159.16;;;11.58;100.00
6524;BME280;3295;38.928;-77.052;2023-02-23T07:51:06;100158.94;;;11.52;100.00
6524;BME280;3295;38.928;-77.052;2023-02-23T07:53:34;100157.47;;;11.58;100.00
6524;BME280;3295;38.928;-77.052;2023-02-23T07:56:03;100135.16;;;11.53;100.00
6524;BME280;3295;38.928;-77.052;2023-02-23T07:58:31;100143.19;;;11.39;100.00
6524;BME280;3295;38.928;-77.052;2023-02-23T08:00:59;100145.09;;;11.45;100.00
6524;BME280;3295;38.928;-77.052;2023-02-23T08:03:28;100152.81;;;11.47;100.00
6524;BME280;3295;38.928;-77.052;2023-02-23T08:05:57;100145.19;;;11.48;100.00
6524;BME280;3295;38.928;-77.052;2023-02-23T08:08:25;100152.22;;;11.54;100.00
6524;BME280;3295;38.928;-77.052;2023-02-23T08:10:58;100152.81;;;11.47;100.00
6524;BME280;3295;38.928;-77.052;2023-02-23T08:13:27;100153.63;;;11.46;100.00
6524;BME280;3295;38.928;-77.052;2023-02-23T08:15:54;100136.47;;;11.42;100.00
6524;BME280;3295;38.928;-77.052;2023-02-23T08:18:22;100133.38;;;11.26;100.00
6524;BME280;3295;38.928;-77.052;2023-02-23T08:20:57;100143.66;;;11.28;100.00
6524;BME280;3295;38.928;-77.052;2023-02-23T08:23:25;100141.47;;;11.38;100.00
6524;BME280;3295;38.928;-77.052;2023-02-23T08:25:53;100136.16;;;11.32;100.00
6524;BME280;3295;38.928;-77.052;2023-02-23T08:28:21;100133.69;;;11.35;100.00
6524;BME280;3295;38.928;-77.052;2023-02-23T08:30:50;100130.59;;;11.44;100.00
6524;BME280;3295;38.928;-77.052;2023-02-23T08:33:18;100129.84;;;11.47;100.00
6524;BME280;3295;38.928;-77.052;2023-02-23T08:35:45;100122.19;;;11.47;100.00
6524;BME280;3295;38.928;-77.052;2023-02-23T08:38:15;100109.66;;;11.54;100.00
6524;BME280;3295;38.928;-77.052;2023-02-23T08:40:43;100114.59;;;11.50;100.00
6524;BME280;3295;38.928;-77.052;2023-02-23T08:43:11;100111.50;;;11.58;100.00
6524;BME280;3295;38.928;-77.052;2023-02-23T08:45:38;100103.97;;;11.61;100.00
6524;BME280;3295;38.928;-77.052;2023-02-23T08:48:07;100103.16;;;11.64;100.00
6524;BME280;3295;38.928;-77.052;2023-02-23T08:50:35;100120.19;;;11.63;100.00
6524;BME280;3295;38.928;-77.052;2023-02-23T08:53:03;100116.22;;;11.71;100.00
6524;BME280;3295;38.928;-77.052;2023-02-23T08:55:33;100116.97;;;11.69;100.00
6524;BME280;3295;38.928;-77.052;2023-02-23T08:58:02;100126.53;;;11.74;100.00
6524;BME280;3295;38.928;-77.052;2023-02-23T09:00:34;100109.63;;;11.78;100.00
6524;BME280;3295;38.928;-77.052;2023-02-23T09:03:03;100116.53;;;11.81;100.00
6524;BME280;3295;38.928;-77.052;2023-02-23T09:05:31;100109.03;;;11.85;100.00
6524;BME280;3295;38.928;-77.052;2023-02-23T09:07:59;100100.56;;;11.86;100.00
6524;BME280;3295;38.928;-77.052;2023-02-23T09:10:27;100116.66;;;11.84;100.00
6524;BME280;3295;38.928;-77.052;2023-02-23T09:12:56;100120.56;;;11.74;100.00
6524;BME280;3295;38.928;-77.052;2023-02-23T09:15:24;100121.69;;;11.57;100.00
6524;BME280;3295;38.928;-77.052;2023-02-23T09:17:52;100106.88;;;11.47;100.00
6524;BME280;3295;38.928;-77.052;2023-02-23T09:20:20;100106.75;;;11.44;100.00
6524;BME280;3295;38.928;-77.052;2023-02-23T09:22:52;100107.56;;;11.43;100.00
6524;BME280;3295;38.928;-77.052;2023-02-23T09:25:21;100092.25;;;11.43;100.00
6524;BME280;3295;38.928;-77.052;2023-02-23T09:27:50;100079.22;;;11.35;100.00
6524;BME280;3295;38.928;-77.052;2023-02-23T09:30:20;100111.91;;;11.21;100.00
6524;BME280;3295;38.928;-77.052;2023-02-23T09:32:48;100108.16;;;11.35;100.00
6524;BME280;3295;38.928;-77.052;2023-02-23T09:35:18;100107.47;;;11.39;100.00
6524;BME280;3295;38.928;-77.052;2023-02-23T09:37:47;100100.25;;;11.28;100.00
6524;BME280;3295;38.928;-77.052;2023-02-23T09:40:18;100111.09;;;11.22;100.00
6524;BME280;3295;38.928;-77.052;2023-02-23T09:42:53;100126.47;;;11.24;100.00
6524;BME280;3295;38.928;-77.052;2023-02-23T09:45:30;100114.59;;;11.24;100.00
6524;BME280;3295;38.928;-77.052;2023-02-23T09:48:10;100111.53;;;11.34;100.00
6524;BME280;3295;38.928;-77.052;2023-02-23T09:50:43;100110.63;;;11.32;100.00
6524;BME280;3295;38.928;-77.052;2023-02-23T09:56:05;100164.22;;;11.09;100.00
6524;BME280;3295;38.928;-77.052;2023-02-23T09:58:35;100154.06;;;11.10;100.00
6524;BME280;3295;38.928;-77.052;2023-02-23T10:01:20;100138.09;;;11.16;100.00
6524;BME280;3295;38.928;-77.052;2023-02-23T10:03:55;100159.41;;;11.16;100.00
6524;BME280;3295;38.928;-77.052;2023-02-23T10:06:25;100144.09;;;11.16;100.00
6524;BME280;3295;38.928;-77.052;2023-02-23T10:09:05;100142.47;;;11.18;100.00
6524;BME280;3295;38.928;-77.052;2023-02-23T10:11:43;100158.91;;;11.02;100.00
6524;BME280;3295;38.928;-77.052;2023-02-23T10:14:24;100171.97;;;11.12;100.00
6524;BME280;3295;38.928;-77.052;2023-02-23T10:17:08;100160.91;;;11.11;100.00
6524;BME280;3295;38.928;-77.052;2023-02-23T10:19:45;100151.56;;;11.12;100.00
6524;BME280;3295;38.928;-77.052;2023-02-23T10:22:17;100158.03;;;11.02;100.00
6524;BME280;3295;38.928;-77.052;2023-02-23T10:24:51;100177.31;;;10.95;100.00
6524;BME280;3295;38.928;-77.052;2023-02-23T10:27:23;100178.69;;;10.86;100.00
6524;BME280;3295;38.928;-77.052;2023-02-23T10:29:55;100197.59;;;10.91;100.00
6524;BME280;3295;38.928;-77.052;2023-02-23T10:32:31;100206.00;;;10.88;100.00
6524;BME280;3295;38.928;-77.052;2023-02-23T10:35:10;100198.75;;;10.77;100.00
6524;BME280;3295;38.928;-77.052;2023-02-23T10:37:38;100215.19;;;10.62;100.00
6524;BME280;3295;38.928;-77.052;2023-02-23T10:40:14;100220.75;;;10.75;100.00
6524;BME280;3295;38.928;-77.052;2023-02-23T10:42:42;100215.78;;;10.78;100.00
6524;BME280;3295;38.928;-77.052;2023-02-23T10:45:13;100217.16;;;10.69;100.00
6524;BME280;3295;38.928;-77.052;2023-02-23T10:47:45;100218.78;;;10.67;100.00
6524;BME280;3295;38.928;-77.052;2023-02-23T10:50:14;100212.22;;;10.52;100.00
6524;BME280;3295;38.928;-77.052;2023-02-23T10:52:45;100235.47;;;10.59;100.00
6524;BME280;3295;38.928;-77.052;2023-02-23T10:55:21;100239.72;;;10.38;100.00
6524;BME280;3295;38.928;-77.052;2023-02-23T10:58:00;100248.75;;;10.52;100.00
6524;BME280;3295;38.928;-77.052;2023-02-23T11:00:30;100267.53;;;10.54;100.00
6524;BME280;3295;38.928;-77.052;2023-02-23T11:03:01;100297.66;;;10.42;100.00
6524;BME280;3295;38.928;-77.052;2023-02-23T11:05:35;100321.09;;;10.54;100.00
6524;BME280;3295;38.928;-77.052;2023-02-23T11:08:16;100335.34;;;10.49;100.00
6524;BME280;3295;38.928;-77.052;2023-02-23T11:11:10;100329.81;;;10.59;100.00
6524;BME280;3295;38.928;-77.052;2023-02-23T11:13:45;100341.19;;;10.67;100.00
6524;BME280;3295;38.928;-77.052;2023-02-23T11:16:14;100327.81;;;10.73;100.00
6524;BME280;3295;38.928;-77.052;2023-02-23T11:18:51;100329.94;;;10.62;100.00
6524;BME280;3295;38.928;-77.052;2023-02-23T11:21:25;100326.13;;;10.74;100.00
6524;BME280;3295;38.928;-77.052;2023-02-23T11:23:56;100290.09;;;10.66;100.00
6524;BME280;3295;38.928;-77.052;2023-02-23T11:26:35;100259.81;;;10.74;100.00
6524;BME280;3295;38.928;-77.052;2023-02-23T11:29:13;100247.28;;;10.80;100.00
6524;BME280;3295;38.928;-77.052;2023-02-23T11:31:47;100264.53;;;10.85;100.00
6524;BME280;3295;38.928;-77.052;2023-02-23T11:34:26;100296.03;;;10.86;100.00
6524;BME280;3295;38.928;-77.052;2023-02-23T11:37:01;100298.22;;;10.99;100.00
6524;BME280;3295;38.928;-77.052;2023-02-23T11:39:29;100314.06;;;10.90;100.00
6524;BME280;3295;38.928;-77.052;2023-02-23T11:42:08;100296.75;;;11.04;100.00
6524;BME280;3295;38.928;-77.052;2023-02-23T11:44:36;100271.31;;;11.07;100.00
6524;BME280;3295;38.928;-77.052;2023-02-23T11:47:04;100270.06;;;11.18;100.00
6524;BME280;3295;38.928;-77.052;2023-02-23T11:49:36;100279.28;;;11.15;100.00
6524;BME280;3295;38.928;-77.052;2023-02-23T11:52:11;100282.97;;;11.23;100.00
6524;BME280;3295;38.928;-77.052;2023-02-23T11:54:49;100298.72;;;11.33;100.00
6524;BME280;3295;38.928;-77.052;2023-02-23T11:57:21;100322.91;;;11.43;100.00
6524;BME280;3295;38.928;-77.052;2023-02-23T11:59:50;100327.16;;;11.43;100.00
6524;BME280;3295;38.928;-77.052;2023-02-23T12:02:23;100294.53;;;11.58;100.00
6524;BME280;3295;38.928;-77.052;2023-02-23T12:05:01;100319.00;;;11.53;100.00
6524;BME280;3295;38.928;-77.052;2023-02-23T12:07:37;100329.91;;;11.49;100.00
6524;BME280;3295;38.928;-77.052;2023-02-23T12:10:15;100352.81;;;11.46;100.00
6524;BME280;3295;38.928;-77.052;2023-02-23T12:12:57;100329.47;;;11.59;100.00
6524;BME280;3295;38.928;-77.052;2023-02-23T12:15:41;100333.03;;;11.64;100.00
6524;BME280;3295;38.928;-77.052;2023-02-23T12:18:28;100316.97;;;11.66;100.00
6524;BME280;3295;38.928;-77.052;2023-02-23T12:21:08;100312.84;;;11.70;100.00
6524;BME280;3295;38.928;-77.052;2023-02-23T12:23:40;100300.75;;;11.66;100.00
6524;BME280;3295;38.928;-77.052;2023-02-23T12:26:12;100311.94;;;11.46;100.00
6524;BME280;3295;38.928;-77.052;2023-02-23T12:28:48;100307.41;;;11.61;100.00
6524;BME280;3295;38.928;-77.052;2023-02-23T12:31:27;100334.78;;;11.65;100.00
6524;BME280;3295;38.928;-77.052;2023-02-23T12:34:00;100350.66;;;11.56;100.00
6524;BME280;3295;38.928;-77.052;2023-02-23T12:36:35;100319.94;;;11.77;100.00
6524;BME280;3295;38.928;-77.052;2023-02-23T12:39:10;100343.97;;;11.82;100.00
6524;BME280;3295;38.928;-77.052;2023-02-23T12:41:46;100352.75;;;11.89;100.00
6524;BME280;3295;38.928;-77.052;2023-02-23T12:44:28;100364.97;;;11.97;100.00
6524;BME280;3295;38.928;-77.052;2023-02-23T12:47:03;100366.84;;;12.01;100.00
6524;BME280;3295;38.928;-77.052;2023-02-23T12:49:37;100343.09;;;12.05;100.00
6524;BME280;3295;38.928;-77.052;2023-02-23T12:52:11;100347.56;;;11.87;100.00
6524;BME280;3295;38.928;-77.052;2023-02-23T12:54:42;100354.75;;;11.97;100.00
6524;BME280;3295;38.928;-77.052;2023-02-23T12:57:21;100358.56;;;12.08;100.00
6524;BME280;3295;38.928;-77.052;2023-02-23T13:00:04;100370.09;;;11.97;100.00
6524;BME280;3295;38.928;-77.052;2023-02-23T13:02:40;100394.97;;;12.03;100.00
6524;BME280;3295;38.928;-77.052;2023-02-23T13:05:20;100429.13;;;12.05;100.00
6524;BME280;3295;38.928;-77.052;2023-02-23T13:08:01;100417.97;;;12.03;100.00
6524;BME280;3295;38.928;-77.052;2023-02-23T13:10:41;100418.81;;;12.26;100.00
6524;BME280;3295;38.928;-77.052;2023-02-23T13:13:23;100429.06;;;12.26;100.00
6524;BME280;3295;38.928;-77.052;2023-02-23T13:16:08;100447.88;;;12.28;100.00
6524;BME280;3295;38.928;-77.052;2023-02-23T13:18:41;100462.41;;;12.29;100.00
6524;BME280;3295;38.928;-77.052;2023-02-23T13:21:15;100457.22;;;12.27;100.00
6524;BME280;3295;38.928;-77.052;2023-02-23T13:23:54;100449.38;;;12.23;100.00